Time;durP1;ratioP1;P1;durP2;ratioP2;P2;SDS_P1;SDS_P2;PMS_P1;PMS_P2;Temp;Humidity;BMP_temperature;BMP_pressure;BME280_temperature;BME280_humidity;BME280_pressure;Samples;Min_cycle;Max_cycle;Signal;HPM_P1;HPM_P2
2023/10/19 00:00:49;;;;;;;6.80;4.03;;;11.10;99.90;;;;;;5092809;28;20768;-63
2023/10/19 00:03:16;;;;;;;7.00;4.10;;;11.10;99.90;;;;;;5083519;28;20446;-62
2023/10/19 00:05:42;;;;;;;9.87;4.77;;;11.10;99.90;;;;;;5104353;28;20433;-63
2023/10/19 00:08:15;;;;;;;9.97;4.30;;;11.10;99.90;;;;;;5088563;28;20435;-63
2023/10/19 00:10:43;;;;;;;6.17;3.83;;;11.10;99.90;;;;;;5093479;28;20180;-62
2023/10/19 00:13:11;;;;;;;7.13;4.00;;;11.20;99.90;;;;;;5088071;28;20458;-63
2023/10/19 00:15:49;;;;;;;13.53;5.17;;;11.30;99.90;;;;;;5103811;28;20430;-62
2023/10/19 00:23:13;;;;;;;10.00;4.33;;;11.30;99.90;;;;;;5086658;28;20418;-62
2023/10/19 00:25:41;;;;;;;7.97;4.60;;;11.30;99.90;;;;;;5089701;28;21043;-63
2023/10/19 00:28:07;;;;;;;8.03;3.77;;;11.20;99.90;;;;;;5082554;28;20907;-62
2023/10/19 00:30:35;;;;;;;11.70;4.23;;;11.20;99.90;;;;;;5101790;28;20993;-62
2023/10/19 00:33:15;;;;;;;7.60;4.40;;;11.20;99.90;;;;;;5088170;28;20858;-63
2023/10/19 00:36:14;;;;;;;10.80;4.57;;;11.30;99.90;;;;;;5090361;28;20445;-63
2023/10/19 00:41:07;;;;;;;4.93;3.17;;;11.40;99.90;;;;;;5090379;28;20422;-63
2023/10/19 00:43:37;;;;;;;9.27;4.00;;;11.40;99.90;;;;;;5082647;28;20605;-62
2023/10/19 00:46:13;;;;;;;9.27;3.93;;;11.40;99.90;;;;;;5090536;28;20450;-63
2023/10/19 00:48:40;;;;;;;8.90;4.17;;;11.50;99.90;;;;;;5081997;28;20517;-62
2023/10/19 00:51:26;;;;;;;4.37;2.80;;;11.50;99.90;;;;;;5090394;28;20441;-62
2023/10/19 00:53:54;;;;;;;4.70;3.17;;;11.60;99.90;;;;;;5078190;28;20770;-63
2023/10/19 00:56:23;;;;;;;3.43;1.93;;;11.60;99.90;;;;;;5090341;28;20502;-62
2023/10/19 00:58:53;;;;;;;4.87;2.23;;;11.70;99.90;;;;;;5080469;28;20458;-62
2023/10/19 01:01:24;;;;;;;11.10;3.50;;;11.80;99.90;;;;;;5087716;28;20738;-63
2023/10/19 01:03:55;;;;;;;7.70;3.13;;;11.90;99.90;;;;;;5076484;28;20418;-62
2023/10/19 01:06:25;;;;;;;6.33;3.10;;;11.90;99.90;;;;;;5087507;28;20523;-62
2023/10/19 01:08:52;;;;;;;6.13;3.20;;;12.00;99.90;;;;;;5078351;28;20450;-62
2023/10/19 01:11:20;;;;;;;8.07;2.73;;;12.10;99.90;;;;;;5090279;28;20483;-62
2023/10/19 01:13:47;;;;;;;5.97;3.20;;;12.10;99.90;;;;;;5077966;28;20426;-62
2023/10/19 01:16:21;;;;;;;3.43;2.30;;;12.00;99.90;;;;;;5089463;28;20502;-62
2023/10/19 01:18:48;;;;;;;10.47;3.87;;;12.10;99.90;;;;;;5078103;28;20489;-62
2023/10/19 01:21:18;;;;;;;6.37;3.97;;;12.10;99.90;;;;;;5089968;28;21214;-62
2023/10/19 01:23:44;;;;;;;8.33;3.37;;;12.00;99.90;;;;;;5084964;28;20536;-61
2023/10/19 01:26:10;;;;;;;14.60;3.60;;;12.10;99.90;;;;;;5089912;28;20418;-62
2023/10/19 01:31:06;;;;;;;6.67;2.93;;;12.10;99.90;;;;;;5093648;28;20202;-62
2023/10/19 01:33:34;;;;;;;6.43;2.93;;;12.20;99.90;;;;;;5080934;28;20929;-62
2023/10/19 01:36:14;;;;;;;11.40;4.33;;;12.30;99.90;;;;;;5089553;28;20421;-62
2023/10/19 01:38:41;;;;;;;6.40;3.53;;;12.40;99.90;;;;;;5081754;28;21813;-62
2023/10/19 01:41:18;;;;;;;4.10;2.23;;;12.40;99.90;;;;;;5089023;28;20803;-62
2023/10/19 01:43:44;;;;;;;4.63;3.30;;;12.40;99.90;;;;;;5081892;28;20434;-62
2023/10/19 01:46:11;;;;;;;5.73;3.10;;;12.40;99.90;;;;;;5089581;28;20720;-62
2023/10/19 01:48:40;;;;;;;8.27;3.70;;;12.30;99.90;;;;;;5081630;28;20896;-62
2023/10/19 01:51:10;;;;;;;6.37;3.80;;;12.30;99.90;;;;;;5089618;28;20502;-62
2023/10/19 01:53:39;;;;;;;6.33;3.50;;;12.20;99.90;;;;;;5081776;28;21146;-63
2023/10/19 01:56:09;;;;;;;5.37;2.67;;;12.20;99.90;;;;;;5088784;28;20509;-62
2023/10/19 01:58:36;;;;;;;6.90;3.23;;;12.10;99.90;;;;;;5081004;28;20553;-63
2023/10/19 02:01:06;;;;;;;3.07;2.30;;;12.10;99.90;;;;;;5092570;28;20406;-61
2023/10/19 02:03:32;;;;;;;5.00;2.53;;;12.20;99.90;;;;;;5086278;28;20801;-61
2023/10/19 02:06:20;;;;;;;8.90;2.80;;;12.00;99.90;;;;;;5103100;28;20413;-62
2023/10/19 02:09:00;;;;;;;4.57;2.63;;;12.10;99.90;;;;;;5089825;28;20211;-62
2023/10/19 02:11:28;;;;;;;5.70;3.67;;;12.20;99.90;;;;;;5095760;28;20414;-62
2023/10/19 02:13:59;;;;;;;8.83;3.20;;;12.10;99.90;;;;;;5091788;28;21001;-62
2023/10/19 02:16:26;;;;;;;8.10;2.77;;;12.10;99.90;;;;;;5097753;28;20426;-62
2023/10/19 02:18:52;;;;;;;4.63;3.30;;;12.00;99.90;;;;;;5086644;28;20913;-62
2023/10/19 02:21:30;;;;;;;4.13;2.40;;;12.00;99.90;;;;;;5100392;28;20439;-62
2023/10/19 02:23:59;;;;;;;5.17;2.03;;;11.90;99.90;;;;;;5081970;28;20505;-62
2023/10/19 02:26:27;;;;;;;8.87;2.60;;;12.00;99.90;;;;;;5093607;28;20472;-62
2023/10/19 02:28:54;;;;;;;6.37;2.50;;;11.80;99.90;;;;;;5090256;28;20429;-62
2023/10/19 02:31:23;;;;;;;7.43;3.77;;;11.70;99.90;;;;;;5100940;28;20422;-62
2023/10/19 02:33:52;;;;;;;9.47;2.90;;;11.60;99.90;;;;;;5093937;28;20433;-62
2023/10/19 02:36:22;;;;;;;4.90;2.57;;;11.70;99.90;;;;;;5092840;28;20444;-62
2023/10/19 02:38:51;;;;;;;7.27;3.27;;;11.40;99.90;;;;;;5078703;28;20482;-62
2023/10/19 02:41:19;;;;;;;7.00;3.30;;;11.50;99.90;;;;;;5092297;28;21347;-62
2023/10/19 02:43:51;;;;;;;6.33;2.90;;;11.40;99.90;;;;;;5084947;28;20422;-62
2023/10/19 02:46:17;;;;;;;6.90;2.73;;;11.40;99.90;;;;;;5112667;28;20622;-62
2023/10/19 02:48:44;;;;;;;8.20;4.07;;;11.30;99.90;;;;;;5096938;28;21002;-62
2023/10/19 02:51:13;;;;;;;14.30;3.03;;;11.40;99.90;;;;;;5113661;28;20417;-62
2023/10/19 02:53:42;;;;;;;4.30;2.63;;;11.30;99.90;;;;;;5105015;28;20878;-62
2023/10/19 02:56:19;;;;;;;7.50;4.50;;;11.30;99.90;;;;;;5112059;28;20418;-63
2023/10/19 02:58:49;;;;;;;4.60;2.87;;;11.40;99.90;;;;;;5104524;27;20468;-63
2023/10/19 03:01:18;;;;;;;8.50;2.80;;;11.50;99.90;;;;;;5116824;27;20434;-63
2023/10/19 03:03:45;;;;;;;9.70;3.93;;;11.40;99.90;;;;;;5105014;28;20451;-63
2023/10/19 03:06:11;;;;;;;6.07;2.67;;;11.40;99.90;;;;;;5112250;28;20411;-63
2023/10/19 03:08:36;;;;;;;12.00;3.77;;;11.40;99.90;;;;;;5105957;27;20425;-62
2023/10/19 03:11:07;;;;;;;6.27;3.60;;;11.40;99.90;;;;;;5117394;27;20478;-63
2023/10/19 03:13:32;;;;;;;9.90;4.13;;;11.50;99.90;;;;;;5105381;28;20266;-62
2023/10/19 03:16:00;;;;;;;4.50;2.80;;;11.40;99.90;;;;;;5112081;28;20528;-63
2023/10/19 03:18:28;;;;;;;5.23;2.90;;;11.50;99.90;;;;;;5104975;28;20252;-63
2023/10/19 03:20:54;;;;;;;11.30;3.37;;;11.40;99.90;;;;;;5111992;28;20417;-63
2023/10/19 03:23:20;;;;;;;8.03;3.60;;;11.50;99.90;;;;;;5106429;28;20417;-63
2023/10/19 03:28:37;;;;;;;5.47;2.97;;;11.70;99.90;;;;;;5101905;28;20521;-63
2023/10/19 03:31:04;;;;;;;5.10;3.20;;;11.70;99.90;;;;;;5107441;28;20426;-63
2023/10/19 03:33:30;;;;;;;10.40;3.37;;;11.70;99.90;;;;;;5104262;27;20478;-63
2023/10/19 03:35:56;;;;;;;4.73;3.33;;;11.60;99.90;;;;;;5111906;28;20414;-63
2023/10/19 03:38:22;;;;;;;8.20;3.93;;;11.70;99.90;;;;;;5104114;28;20553;-62
2023/10/19 03:40:52;;;;;;;5.70;3.20;;;11.70;99.90;;;;;;5111239;28;20615;-64
2023/10/19 03:43:21;;;;;;;6.50;3.10;;;11.70;99.90;;;;;;5102789;28;20434;-64
2023/10/19 03:45:52;;;;;;;7.10;3.83;;;11.70;99.90;;;;;;5102370;28;20493;-64
2023/10/19 03:48:24;;;;;;;3.70;2.60;;;11.70;99.90;;;;;;5104618;28;20437;-62
2023/10/19 03:50:51;;;;;;;7.20;3.07;;;11.60;99.90;;;;;;5109600;28;20409;-63
2023/10/19 03:53:18;;;;;;;6.07;3.00;;;11.60;99.90;;;;;;5104286;28;20434;-63
2023/10/19 03:55:43;;;;;;;4.00;2.60;;;11.70;99.90;;;;;;5110874;28;20559;-63
2023/10/19 03:58:11;;;;;;;5.80;3.20;;;11.70;99.90;;;;;;5104099;28;20850;-63
2023/10/19 04:00:37;;;;;;;4.00;2.30;;;11.60;99.90;;;;;;5111322;28;20191;-62
2023/10/19 04:03:03;;;;;;;16.87;3.70;;;11.60;99.90;;;;;;5106077;28;20418;-62
2023/10/19 04:05:31;;;;;;;5.27;3.07;;;11.70;99.90;;;;;;5110909;28;20217;-62
2023/10/19 04:07:57;;;;;;;3.93;2.90;;;11.70;99.90;;;;;;5106548;28;20509;-62
2023/10/19 04:13:01;;;;;;;6.50;3.77;;;11.60;99.90;;;;;;5102066;28;20422;-63
2023/10/19 04:15:29;;;;;;;7.67;3.83;;;11.60;99.90;;;;;;5110917;28;20445;-63
2023/10/19 04:17:56;;;;;;;10.10;3.37;;;11.50;99.90;;;;;;5107003;28;20554;-63
2023/10/19 04:22:51;;;;;;;6.50;2.90;;;11.60;99.90;;;;;;5110460;27;20570;-62
2023/10/19 04:25:25;;;;;;;5.87;3.50;;;11.50;99.90;;;;;;5109046;27;20305;-62
2023/10/19 04:27:51;;;;;;;12.40;4.20;;;11.60;99.90;;;;;;5099495;28;20567;-62
2023/10/19 04:30:21;;;;;;;4.43;2.90;;;11.70;99.90;;;;;;5110575;28;20453;-62
2023/10/19 04:32:47;;;;;;;8.13;3.43;;;11.60;99.90;;;;;;5103623;28;20422;-62
2023/10/19 04:35:14;;;;;;;4.60;3.17;;;11.60;99.90;;;;;;5108083;28;20416;-63
2023/10/19 04:37:42;;;;;;;4.63;3.03;;;11.70;99.90;;;;;;5110041;28;20858;-63
2023/10/19 04:40:09;;;;;;;4.40;2.27;;;11.70;99.90;;;;;;5104628;28;20832;-63
2023/10/19 04:42:36;;;;;;;5.20;2.87;;;11.70;99.90;;;;;;5099264;28;20419;-63
2023/10/19 04:45:03;;;;;;;3.57;2.50;;;11.80;99.90;;;;;;5105147;28;20442;-62
2023/10/19 04:47:28;;;;;;;5.40;3.30;;;11.80;99.90;;;;;;5103093;28;20419;-63
2023/10/19 04:49:55;;;;;;;6.30;3.73;;;11.80;99.90;;;;;;5104856;28;20426;-63
2023/10/19 04:52:20;;;;;;;6.50;3.40;;;11.80;99.90;;;;;;5118884;27;20180;-63
2023/10/19 04:54:46;;;;;;;9.53;3.73;;;11.80;99.90;;;;;;5103540;28;20452;-63
2023/10/19 04:57:12;;;;;;;3.90;2.23;;;11.70;99.90;;;;;;5110034;28;20261;-63
2023/10/19 04:59:37;;;;;;;7.20;3.33;;;11.80;99.90;;;;;;5108888;27;20215;-63
2023/10/19 05:02:04;;;;;;;7.43;3.30;;;11.70;99.90;;;;;;5112128;28;20212;-63
2023/10/19 05:04:29;;;;;;;5.93;2.97;;;11.70;99.90;;;;;;5102566;28;20187;-63
2023/10/19 05:06:55;;;;;;;8.53;3.37;;;11.80;99.90;;;;;;5103861;28;20438;-63
2023/10/19 05:09:21;;;;;;;7.03;3.10;;;11.80;99.90;;;;;;5101672;28;20180;-63
2023/10/19 05:11:46;;;;;;;8.93;3.63;;;11.80;99.90;;;;;;5111559;28;20195;-63
2023/10/19 05:14:13;;;;;;;5.20;2.93;;;11.80;99.90;;;;;;5104463;28;20180;-63
2023/10/19 05:16:40;;;;;;;10.27;3.27;;;11.90;99.90;;;;;;5110711;28;20183;-63
2023/10/19 05:19:05;;;;;;;9.63;3.47;;;11.80;99.90;;;;;;5099511;28;20481;-63
2023/10/19 05:21:31;;;;;;;5.03;3.07;;;11.70;99.90;;;;;;5111825;27;20469;-63
2023/10/19 05:23:56;;;;;;;5.17;3.00;;;11.70;99.90;;;;;;5109417;27;20176;-63
2023/10/19 05:26:22;;;;;;;7.23;4.20;;;11.70;99.90;;;;;;5110282;28;20172;-63
2023/10/19 05:28:48;;;;;;;16.13;2.97;;;11.70;99.90;;;;;;5101280;28;20651;-63
2023/10/19 05:31:15;;;;;;;3.50;2.20;;;11.70;99.90;;;;;;5115691;28;20180;-63
2023/10/19 05:33:40;;;;;;;5.33;3.20;;;11.80;99.90;;;;;;5093999;28;20617;-63
2023/10/19 05:36:06;;;;;;;7.00;3.77;;;11.80;99.90;;;;;;5109579;28;20474;-63
2023/10/19 05:38:32;;;;;;;6.00;3.40;;;11.80;99.90;;;;;;5101554;28;20299;-63
2023/10/19 05:40:59;;;;;;;7.70;4.07;;;11.80;99.90;;;;;;5106816;28;20895;-63
2023/10/19 05:43:25;;;;;;;3.80;2.33;;;11.80;99.90;;;;;;5095047;28;20179;-63
2023/10/19 05:45:51;;;;;;;6.53;2.73;;;11.80;99.90;;;;;;5109127;28;20424;-63
2023/10/19 05:48:17;;;;;;;8.30;3.57;;;11.80;99.90;;;;;;5102222;28;20418;-63
2023/10/19 05:50:43;;;;;;;6.07;3.53;;;11.90;99.90;;;;;;5108913;28;20940;-63
2023/10/19 05:53:08;;;;;;;8.97;3.30;;;11.90;99.90;;;;;;5101819;28;20216;-63
2023/10/19 05:55:35;;;;;;;5.00;3.20;;;11.90;99.90;;;;;;5105945;28;20927;-63
2023/10/19 05:58:04;;;;;;;6.37;3.37;;;12.00;99.90;;;;;;5102717;28;20205;-63
2023/10/19 06:00:30;;;;;;;6.00;3.03;;;11.90;99.90;;;;;;5104869;28;20479;-63
2023/10/19 06:02:57;;;;;;;9.97;4.27;;;11.90;99.90;;;;;;5104245;28;20764;-63
2023/10/19 06:05:23;;;;;;;7.90;3.60;;;11.90;99.90;;;;;;5107191;28;20901;-63
2023/10/19 06:07:50;;;;;;;5.17;3.10;;;12.00;99.90;;;;;;5116496;28;21300;-64
2023/10/19 06:10:22;;;;;;;7.07;3.33;;;12.00;99.90;;;;;;5106725;28;20405;-63
2023/10/19 06:12:49;;;;;;;9.57;4.70;;;12.00;99.90;;;;;;5096776;28;20476;-63
2023/10/19 06:15:16;;;;;;;11.57;5.73;;;12.00;99.90;;;;;;5109862;28;20763;-64
2023/10/19 06:17:42;;;;;;;14.00;5.53;;;12.10;99.90;;;;;;5121154;28;20422;-63
2023/10/19 06:20:19;;;;;;;11.93;6.20;;;12.00;99.90;;;;;;5103236;28;20497;-63
2023/10/19 06:22:50;;;;;;;15.30;6.50;;;12.00;99.90;;;;;;5112365;28;20424;-63
2023/10/19 06:25:17;;;;;;;15.03;8.27;;;12.00;99.90;;;;;;5115622;28;20416;-63
2023/10/19 06:27:43;;;;;;;10.27;5.60;;;11.90;99.90;;;;;;5100565;28;20789;-64
2023/10/19 06:30:10;;;;;;;6.07;3.50;;;12.00;99.90;;;;;;5109388;28;20504;-63
2023/10/19 06:32:36;;;;;;;10.37;5.13;;;12.00;99.90;;;;;;5113977;28;20486;-63
2023/10/19 06:35:03;;;;;;;20.47;4.00;;;12.00;99.90;;;;;;5102823;28;20425;-63
2023/10/19 06:37:28;;;;;;;7.93;4.30;;;12.00;99.90;;;;;;5107296;28;21281;-63
2023/10/19 06:39:54;;;;;;;8.83;4.10;;;12.10;99.90;;;;;;5102231;28;20461;-64
2023/10/19 06:42:20;;;;;;;6.30;3.97;;;12.00;99.90;;;;;;5108291;28;20263;-63
2023/10/19 06:44:46;;;;;;;9.90;4.10;;;12.10;99.90;;;;;;5103476;28;20194;-63
2023/10/19 06:47:13;;;;;;;6.33;3.20;;;12.10;99.90;;;;;;5110832;27;20945;-63
2023/10/19 06:49:39;;;;;;;5.27;3.40;;;12.20;99.90;;;;;;5103643;28;20245;-63
2023/10/19 06:52:05;;;;;;;8.07;3.57;;;12.20;99.90;;;;;;5109083;27;20424;-63
2023/10/19 06:54:31;;;;;;;8.23;4.17;;;12.20;99.90;;;;;;5102081;28;20436;-62
2023/10/19 06:56:57;;;;;;;4.20;2.87;;;12.20;99.90;;;;;;5103456;28;20316;-63
2023/10/19 06:59:24;;;;;;;5.10;2.80;;;12.10;99.90;;;;;;5107697;27;20984;-63
2023/10/19 07:01:50;;;;;;;5.53;3.80;;;12.20;99.90;;;;;;5111436;27;20567;-63
2023/10/19 07:04:15;;;;;;;6.70;4.67;;;12.20;99.90;;;;;;5110711;27;20503;-63
2023/10/19 07:06:41;;;;;;;4.20;2.40;;;12.20;99.90;;;;;;5112782;28;20989;-63
2023/10/19 07:09:09;;;;;;;7.87;2.67;;;12.30;99.90;;;;;;5102301;28;20756;-63
2023/10/19 07:11:35;;;;;;;7.73;3.90;;;12.40;99.90;;;;;;5106145;28;20188;-63
2023/10/19 07:14:01;;;;;;;5.13;3.80;;;12.50;99.90;;;;;;5106664;28;20452;-63
2023/10/19 07:16:26;;;;;;;7.83;2.80;;;12.60;99.90;;;;;;5111619;28;20183;-63
2023/10/19 07:18:53;;;;;;;5.70;2.67;;;12.70;99.90;;;;;;5103760;28;20480;-63
2023/10/19 07:21:19;;;;;;;4.67;2.70;;;12.70;99.90;;;;;;5112714;27;20267;-63
2023/10/19 07:23:45;;;;;;;4.50;2.53;;;12.80;99.90;;;;;;5101195;28;20438;-63
2023/10/19 07:26:14;;;;;;;20.47;3.67;;;12.90;99.90;;;;;;5114284;27;20409;-64
2023/10/19 07:28:40;;;;;;;6.60;3.23;;;12.90;99.90;;;;;;5104501;27;20462;-63
2023/10/19 07:31:15;;;;;;;9.03;2.83;;;12.90;99.90;;;;;;5123708;27;20443;-63
2023/10/19 07:33:45;;;;;;;7.00;3.07;;;12.90;99.90;;;;;;5111516;27;20879;-63
2023/10/19 07:36:18;;;;;;;8.10;3.40;;;12.80;99.90;;;;;;5111912;28;20422;-63
2023/10/19 07:38:46;;;;;;;17.33;3.20;;;13.00;99.90;;;;;;5104179;28;20489;-63
2023/10/19 07:41:12;;;;;;;5.50;2.77;;;12.90;99.90;;;;;;5111179;28;20458;-63
2023/10/19 07:43:37;;;;;;;6.13;2.70;;;13.00;99.90;;;;;;5104396;28;20453;-63
2023/10/19 07:46:03;;;;;;;4.40;2.67;;;13.10;99.90;;;;;;5111655;28;20172;-63
2023/10/19 07:48:28;;;;;;;5.67;3.00;;;13.10;99.90;;;;;;5104001;28;20185;-63
2023/10/19 07:50:55;;;;;;;5.90;3.47;;;13.10;99.90;;;;;;5104177;28;20184;-63
2023/10/19 07:53:21;;;;;;;4.30;2.33;;;13.20;99.90;;;;;;5102780;28;20210;-63
2023/10/19 07:55:47;;;;;;;5.00;3.00;;;13.20;99.90;;;;;;5110124;28;20510;-63
2023/10/19 07:58:13;;;;;;;4.77;3.10;;;13.20;99.90;;;;;;5102465;28;21029;-63
2023/10/19 08:00:39;;;;;;;7.90;3.10;;;13.20;99.90;;;;;;5105305;27;20199;-63
2023/10/19 08:03:05;;;;;;;4.30;2.97;;;13.20;99.90;;;;;;5096984;28;20216;-63
2023/10/19 08:05:36;;;;;;;9.23;3.07;;;13.30;99.90;;;;;;5118279;27;20479;-63
2023/10/19 08:08:03;;;;;;;4.10;2.40;;;13.30;99.90;;;;;;5110195;27;20441;-63
2023/10/19 08:10:29;;;;;;;7.73;3.20;;;13.40;99.90;;;;;;5106996;27;20425;-63
2023/10/19 08:12:55;;;;;;;10.83;3.30;;;13.50;99.90;;;;;;5114773;27;20432;-63
2023/10/19 08:15:21;;;;;;;9.60;3.13;;;13.60;99.90;;;;;;5116786;27;20266;-63
2023/10/19 08:17:50;;;;;;;3.43;2.40;;;13.70;99.90;;;;;;5113399;27;20957;-63
2023/10/19 08:20:24;;;;;;;7.30;2.80;;;13.80;99.90;;;;;;5096734;27;20550;-63
2023/10/19 08:22:53;;;;;;;5.73;3.10;;;14.00;99.90;;;;;;5102433;28;20699;-63
2023/10/19 08:25:20;;;;;;;9.77;2.30;;;14.30;99.90;;;;;;5097546;28;20414;-63
2023/10/19 08:27:49;;;;;;;6.10;2.50;;;14.40;99.90;;;;;;5109566;27;20414;-63
2023/10/19 08:30:17;;;;;;;7.03;2.50;;;14.60;99.90;;;;;;5108267;28;20410;-63
2023/10/19 08:32:43;;;;;;;7.10;3.07;;;14.70;99.90;;;;;;5106576;28;20452;-63
2023/10/19 08:35:11;;;;;;;13.43;2.00;;;14.70;99.90;;;;;;5104047;28;20422;-63
2023/10/19 08:37:39;;;;;;;4.97;2.30;;;14.90;99.90;;;;;;5107679;28;20474;-63
2023/10/19 08:40:14;;;;;;;4.70;2.80;;;14.90;99.90;;;;;;5103138;28;20211;-63
2023/10/19 08:42:40;;;;;;;8.87;2.33;;;14.90;99.90;;;;;;5100725;28;20472;-63
2023/10/19 08:45:08;;;;;;;5.67;2.37;;;15.00;99.90;;;;;;5103018;28;20421;-63
2023/10/19 08:47:37;;;;;;;9.03;2.60;;;15.10;99.90;;;;;;5098637;28;20507;-63
2023/10/19 08:50:05;;;;;;;3.30;2.00;;;15.10;99.90;;;;;;5104007;28;20916;-63
2023/10/19 08:52:32;;;;;;;6.17;1.70;;;15.20;99.90;;;;;;5106997;28;20586;-63
2023/10/19 08:54:57;;;;;;;3.00;1.30;;;15.30;99.90;;;;;;5102489;28;20509;-63
2023/10/19 08:57:23;;;;;;;2.23;1.40;;;15.30;99.90;;;;;;5107371;28;20951;-63
2023/10/19 08:59:49;;;;;;;3.37;1.47;;;15.30;99.90;;;;;;5103420;27;20420;-64
2023/10/19 09:02:16;;;;;;;5.03;1.70;;;15.30;99.90;;;;;;5108817;28;20202;-64
2023/10/19 09:04:47;;;;;;;4.30;2.17;;;15.50;99.90;;;;;;5100636;28;20541;-64
2023/10/19 09:07:14;;;;;;;2.20;1.20;;;15.50;99.90;;;;;;5108821;28;20484;-64
2023/10/19 09:09:40;;;;;;;3.53;1.70;;;15.60;99.90;;;;;;5098358;28;20425;-64
2023/10/19 09:12:09;;;;;;;5.33;2.10;;;15.50;99.90;;;;;;5117590;27;21105;-64
2023/10/19 09:14:36;;;;;;;2.00;1.43;;;15.50;99.90;;;;;;5098400;28;20455;-64
2023/10/19 09:17:05;;;;;;;3.47;1.60;;;15.70;99.90;;;;;;5112785;27;20445;-64
2023/10/19 09:19:41;;;;;;;2.90;1.40;;;15.80;99.90;;;;;;5103024;27;20555;-64
2023/10/19 09:22:08;;;;;;;2.37;1.43;;;15.80;99.90;;;;;;5121480;27;20508;-64
2023/10/19 09:24:35;;;;;;;3.03;1.70;;;15.90;99.90;;;;;;5113353;27;20491;-64
2023/10/19 09:27:03;;;;;;;2.90;1.70;;;15.90;99.90;;;;;;5122965;27;20424;-64
2023/10/19 09:29:29;;;;;;;4.33;1.77;;;16.00;99.90;;;;;;5101838;27;20429;-64
2023/10/19 09:31:57;;;;;;;4.70;1.60;;;16.00;99.90;;;;;;5118085;27;20424;-64
2023/10/19 09:34:31;;;;;;;2.80;1.90;;;15.90;99.90;;;;;;5103007;28;20433;-64
2023/10/19 09:37:00;;;;;;;9.87;2.00;;;15.80;99.90;;;;;;5103804;28;20902;-64
2023/10/19 09:39:34;;;;;;;6.77;1.87;;;16.00;99.90;;;;;;5099510;28;20477;-64
2023/10/19 09:42:16;;;;;;;2.50;1.60;;;16.10;99.90;;;;;;5110295;28;20433;-65
2023/10/19 09:44:43;;;;;;;5.03;2.00;;;16.10;99.90;;;;;;5102571;28;20422;-68
2023/10/19 09:47:31;;;;;;;4.63;1.70;;;16.20;99.90;;;;;;5110558;28;20413;-63
2023/10/19 09:49:57;;;;;;;2.77;1.30;;;16.20;99.90;;;;;;5105684;28;20453;-64
2023/10/19 09:52:24;;;;;;;6.43;2.07;;;16.00;99.90;;;;;;5108590;28;20429;-64
2023/10/19 09:55:03;;;;;;;2.93;2.00;;;16.00;99.90;;;;;;5104710;28;20416;-64
2023/10/19 09:57:43;;;;;;;15.50;1.43;;;16.00;99.90;;;;;;5107395;28;20520;-64
2023/10/19 10:00:11;;;;;;;5.23;1.83;;;16.00;99.90;;;;;;5101589;28;20465;-64
2023/10/19 10:02:40;;;;;;;3.60;1.90;;;16.00;99.90;;;;;;5106207;28;21066;-64
2023/10/19 10:05:44;;;;;;;1.83;1.03;;;15.90;99.90;;;;;;5111562;28;20458;-64
2023/10/19 10:08:19;;;;;;;4.87;2.20;;;16.00;99.90;;;;;;5093381;28;20430;-62
2023/10/19 10:10:44;;;;;;;2.77;1.27;;;16.00;99.90;;;;;;5118814;28;20437;-62
2023/10/19 10:13:28;;;;;;;3.40;2.03;;;16.00;99.90;;;;;;5110167;28;20430;-62
2023/10/19 10:15:58;;;;;;;10.93;1.97;;;16.10;99.90;;;;;;5106039;28;20190;-62
2023/10/19 10:18:25;;;;;;;4.03;1.83;;;16.10;99.90;;;;;;5105775;28;20520;-62
2023/10/19 10:21:12;;;;;;;4.20;2.33;;;16.10;99.90;;;;;;5107002;28;20440;-62
2023/10/19 10:23:43;;;;;;;3.23;1.90;;;16.00;99.90;;;;;;5112198;27;20916;-62
2023/10/19 10:26:10;;;;;;;5.43;1.83;;;16.00;99.90;;;;;;5111856;28;20447;-62
2023/10/19 10:28:36;;;;;;;2.67;1.63;;;16.00;99.90;;;;;;5100192;28;20521;-62
2023/10/19 10:31:17;;;;;;;2.83;1.40;;;16.00;99.90;;;;;;5121379;27;20505;-62
2023/10/19 10:33:46;;;;;;;2.87;1.70;;;16.10;99.90;;;;;;5103992;28;20648;-62
2023/10/19 10:36:13;;;;;;;2.83;1.73;;;15.90;99.90;;;;;;5102421;28;20938;-62
2023/10/19 10:38:39;;;;;;;6.87;1.90;;;16.00;99.90;;;;;;5101496;28;21039;-62
2023/10/19 10:41:05;;;;;;;7.03;1.77;;;16.00;99.90;;;;;;5091861;28;21080;-62
2023/10/19 10:43:30;;;;;;;6.70;1.90;;;16.00;99.90;;;;;;5104209;28;20525;-62
2023/10/19 10:46:07;;;;;;;2.50;1.50;;;15.90;99.90;;;;;;5109644;28;20216;-63
2023/10/19 10:48:33;;;;;;;5.60;1.73;;;15.90;99.90;;;;;;5104735;27;20632;-62
2023/10/19 10:50:59;;;;;;;4.50;2.37;;;15.90;99.90;;;;;;5112356;28;20414;-62
2023/10/19 10:53:26;;;;;;;2.77;1.63;;;15.80;99.90;;;;;;5104765;28;20594;-62
2023/10/19 10:55:53;;;;;;;4.43;2.23;;;15.80;99.90;;;;;;5115028;27;20179;-62
2023/10/19 10:58:19;;;;;;;4.23;2.57;;;15.70;99.90;;;;;;5107915;27;20554;-62
2023/10/19 11:00:51;;;;;;;4.03;2.40;;;15.50;99.90;;;;;;5117860;27;20432;-62
2023/10/19 11:03:17;;;;;;;3.60;1.93;;;15.40;99.90;;;;;;5098423;28;20435;-62
2023/10/19 11:05:45;;;;;;;5.13;2.33;;;15.30;99.90;;;;;;5111971;28;20872;-62
2023/10/19 11:08:21;;;;;;;7.73;2.83;;;15.20;99.90;;;;;;5104737;28;20180;-62
2023/10/19 11:10:47;;;;;;;5.50;2.63;;;15.10;99.90;;;;;;5111096;28;20412;-63
2023/10/19 11:13:17;;;;;;;4.77;2.47;;;15.00;99.90;;;;;;5105620;28;20419;-63
2023/10/19 11:15:53;;;;;;;10.27;2.93;;;14.90;99.90;;;;;;5114840;27;21043;-63
2023/10/19 11:18:37;;;;;;;5.40;3.47;;;14.80;99.90;;;;;;5115258;27;20471;-63
2023/10/19 11:21:10;;;;;;;6.73;2.83;;;14.80;99.90;;;;;;5113590;27;20787;-63
2023/10/19 11:23:42;;;;;;;4.43;3.00;;;14.70;99.90;;;;;;5115896;27;20911;-63
2023/10/19 11:26:12;;;;;;;4.60;2.07;;;14.70;99.90;;;;;;5119541;27;20404;-63
2023/10/19 11:29:00;;;;;;;4.67;2.80;;;14.70;99.90;;;;;;5115144;27;20422;-62
2023/10/19 11:31:26;;;;;;;5.20;2.77;;;14.70;99.90;;;;;;5110810;27;20489;-63
2023/10/19 11:33:53;;;;;;;4.13;2.10;;;14.70;99.90;;;;;;5107116;27;20424;-63
2023/10/19 11:36:20;;;;;;;4.53;2.00;;;14.70;99.90;;;;;;5121676;27;20417;-63
2023/10/19 11:38:53;;;;;;;5.67;2.27;;;14.70;99.90;;;;;;5111518;27;20839;-64
2023/10/19 11:41:20;;;;;;;4.80;2.13;;;14.70;99.90;;;;;;5111783;28;20420;-63
2023/10/19 11:43:47;;;;;;;6.00;2.80;;;14.70;99.90;;;;;;5110403;27;20447;-63
2023/10/19 11:46:17;;;;;;;3.40;2.20;;;14.70;99.90;;;;;;5109529;28;20492;-64
2023/10/19 11:48:44;;;;;;;3.63;1.73;;;14.60;99.90;;;;;;5110794;27;20424;-64
2023/10/19 11:51:14;;;;;;;4.63;2.27;;;14.60;99.90;;;;;;5112267;27;20433;-64
2023/10/19 11:53:41;;;;;;;2.17;1.63;;;14.60;99.90;;;;;;5092474;28;21138;-64
2023/10/19 11:56:09;;;;;;;6.77;1.97;;;14.60;99.90;;;;;;5113236;27;20467;-64
2023/10/19 11:58:37;;;;;;;3.13;1.50;;;14.60;99.90;;;;;;5103547;28;20476;-63
2023/10/19 12:01:05;;;;;;;4.13;1.50;;;14.50;99.90;;;;;;5112490;27;20441;-63
2023/10/19 12:03:31;;;;;;;4.37;2.70;;;14.50;99.90;;;;;;5107814;27;20944;-62
2023/10/19 12:05:57;;;;;;;3.40;1.80;;;14.50;99.90;;;;;;5126317;27;20416;-62
2023/10/19 12:08:23;;;;;;;3.63;1.90;;;14.50;99.90;;;;;;5114096;27;20418;-62
2023/10/19 12:10:50;;;;;;;2.07;1.30;;;14.50;99.90;;;;;;5112514;27;20183;-62
2023/10/19 12:13:17;;;;;;;3.17;1.73;;;14.50;99.90;;;;;;5109018;28;20808;-62
2023/10/19 12:15:51;;;;;;;2.30;1.53;;;14.50;99.90;;;;;;5119108;27;20516;-63
2023/10/19 12:18:18;;;;;;;3.10;1.60;;;14.50;99.90;;;;;;5109124;28;21083;-63
2023/10/19 12:20:47;;;;;;;2.73;1.53;;;14.50;99.90;;;;;;5099424;28;20430;-62
2023/10/19 12:23:13;;;;;;;2.90;1.87;;;14.50;99.90;;;;;;5110264;27;20426;-62
2023/10/19 12:25:39;;;;;;;4.80;2.40;;;14.50;99.90;;;;;;5104244;28;20493;-62
2023/10/19 12:28:05;;;;;;;5.40;2.23;;;14.50;99.90;;;;;;5099137;28;21087;-62
2023/10/19 12:30:36;;;;;;;4.93;2.37;;;14.40;99.90;;;;;;5107693;28;20509;-63
2023/10/19 12:33:07;;;;;;;2.83;1.60;;;14.40;99.90;;;;;;5109760;28;20221;-63
2023/10/19 12:35:51;;;;;;;3.40;2.00;;;14.50;99.90;;;;;;5108877;28;20909;-63
2023/10/19 12:38:17;;;;;;;2.30;1.50;;;14.50;99.90;;;;;;5108650;28;21056;-63
2023/10/19 12:40:44;;;;;;;4.13;2.20;;;14.50;99.90;;;;;;5108478;28;20768;-63
2023/10/19 12:43:10;;;;;;;4.03;2.17;;;14.50;99.90;;;;;;5108783;28;20512;-63
2023/10/19 12:45:37;;;;;;;4.73;2.50;;;14.50;99.90;;;;;;5108071;28;20743;-63
2023/10/19 12:48:06;;;;;;;3.80;2.60;;;14.60;99.90;;;;;;5109583;28;20884;-63
2023/10/19 12:50:32;;;;;;;7.77;2.57;;;14.60;99.90;;;;;;5108213;28;20432;-63
2023/10/19 12:52:58;;;;;;;4.33;2.60;;;14.60;99.90;;;;;;5109152;28;20440;-63
2023/10/19 12:55:26;;;;;;;6.20;2.57;;;14.70;99.90;;;;;;5099185;28;20929;-63
2023/10/19 12:57:53;;;;;;;7.30;2.20;;;14.70;99.90;;;;;;5100321;27;20175;-63
2023/10/19 13:00:35;;;;;;;4.37;2.70;;;14.70;99.90;;;;;;5107707;27;20445;-63
2023/10/19 13:03:05;;;;;;;5.03;2.40;;;14.70;99.90;;;;;;5105140;27;20480;-63
2023/10/19 13:05:37;;;;;;;2.67;1.70;;;14.70;99.90;;;;;;5108850;27;20432;-63
2023/10/19 13:08:07;;;;;;;4.57;2.17;;;14.70;99.90;;;;;;5103733;27;20472;-63
2023/10/19 13:10:34;;;;;;;7.40;2.33;;;14.80;99.90;;;;;;5101832;27;20430;-63